Accueil
METAR-TAF:

METAR-TAF

Aéroports :

Chugiak, Alaska, États-Unis

latitude: 61-25N, longitude: 149-31W, altitude: 29 m

Observation

Le bulletin a été fait il y a 54 minutes, à 19:56 UTC
Vent 3 kt de sud
Température -4°C
Humidité 100%
Pression 994 hPa
Visibilité: 16.1 km
Nuages fragmentés à une hauteur de 2000 ft
Ciel couvert à une hauteur de 8500 ft

METAR: PABV 211956Z AUTO 19003KT 10SM BKN020 OVC085 M04/M04 A2935 RMK AO2 SLP947 T10391044 FZRANO

Heure: 11:50 (20:50 UTC)


TAF: absent

Observations et prévisions météorologiques de plus de 4000 aéroports (messages METAR et TAF).

Les stations disponibles sont représentées par des disques jaunes et rouges sur la carte.

Passer la souris dessus pour voir le nom de la station.

Cliquer dessus pour voir les observations et prévisions météorologiques.

Pour changer de carte: cliquez sur les boutons verts avec une croix noire pour zoomer, sur le bouton vert avec un tiret pour effectuer un zoom arrière, ou sur les flèches vertes pour les cartes adjacentes.


METAR-TAF: